createdAt,value
2023-02-01T00:01:31.481Z,2.88
2023-02-01T00:03:58.193Z,2.78
2023-02-01T00:06:24.886Z,3.10
2023-02-01T00:08:51.542Z,2.72
2023-02-01T00:11:18.399Z,2.63
2023-02-01T00:13:45.040Z,2.90
2023-02-01T00:16:11.927Z,2.60
2023-02-01T00:18:38.550Z,3.25
2023-02-01T00:21:05.448Z,3.00
2023-02-01T00:23:32.125Z,3.17
2023-02-01T00:25:59.010Z,2.70
2023-02-01T00:28:25.681Z,2.67
2023-02-01T00:30:52.415Z,2.97
2023-02-01T00:33:19.319Z,2.70
2023-02-01T00:35:45.957Z,2.30
2023-02-01T00:38:12.624Z,2.90
2023-02-01T00:40:39.485Z,3.05
2023-02-01T00:43:06.393Z,2.50
2023-02-01T00:45:33.033Z,2.72
2023-02-01T00:47:59.887Z,2.70
2023-02-01T00:50:26.536Z,3.05
2023-02-01T00:52:53.209Z,2.42
2023-02-01T00:55:19.869Z,3.00
2023-02-01T00:57:46.520Z,3.10
2023-02-01T01:00:13.175Z,2.60
2023-02-01T01:02:39.826Z,3.00
2023-02-01T01:05:06.685Z,2.45
2023-02-01T01:07:33.540Z,2.40
2023-02-01T01:10:00.190Z,2.35
2023-02-01T01:12:28.197Z,2.90
2023-02-01T01:14:55.073Z,2.72
2023-02-01T01:17:21.718Z,2.47
2023-02-01T01:19:48.354Z,3.38
2023-02-01T01:22:15.008Z,2.53
2023-02-01T01:24:41.667Z,2.50
2023-02-01T01:27:08.329Z,2.42
2023-02-01T01:29:34.994Z,3.50
2023-02-01T01:32:01.861Z,2.65
2023-02-01T01:34:28.526Z,2.88
2023-02-01T01:36:55.393Z,3.10
2023-02-01T01:39:22.042Z,2.83
2023-02-01T01:41:48.681Z,2.70
2023-02-01T01:44:15.322Z,3.00
2023-02-01T01:46:42.213Z,2.60
2023-02-01T01:49:08.896Z,2.43
2023-02-01T01:51:35.787Z,2.55
2023-02-01T01:54:02.431Z,2.60
2023-02-01T01:56:29.080Z,2.55
2023-02-01T01:58:55.711Z,3.08
2023-02-01T02:01:22.344Z,2.70
2023-02-01T02:03:48.984Z,2.25
2023-02-01T02:06:15.635Z,2.50
2023-02-01T02:08:42.285Z,2.58
2023-02-01T02:11:08.953Z,3.08
2023-02-01T02:13:35.629Z,2.90
2023-02-01T02:16:02.379Z,2.58
2023-02-01T02:18:29.026Z,2.50
2023-02-01T02:20:55.677Z,2.25
2023-02-01T02:23:22.551Z,2.67
2023-02-01T02:25:49.204Z,2.47
2023-02-01T02:28:15.842Z,2.67
2023-02-01T02:30:42.565Z,2.50
2023-02-01T02:33:09.209Z,2.70
2023-02-01T02:35:35.856Z,2.30
2023-02-01T02:38:02.737Z,2.70
2023-02-01T02:40:29.381Z,2.58
2023-02-01T02:42:57.584Z,2.88
2023-02-01T02:45:25.145Z,2.60
2023-02-01T02:47:52.017Z,2.75
2023-02-01T02:50:18.702Z,2.70
2023-02-01T02:52:45.388Z,2.40
2023-02-01T02:55:12.306Z,2.50
2023-02-01T02:57:38.987Z,3.10
2023-02-01T03:00:05.646Z,3.03
2023-02-01T03:02:32.362Z,2.60
2023-02-01T03:04:59.270Z,2.30
2023-02-01T03:07:26.150Z,2.67
2023-02-01T03:09:52.818Z,2.80
2023-02-01T03:12:19.509Z,2.42
2023-02-01T03:14:46.377Z,2.47
2023-02-01T03:17:13.251Z,3.10
2023-02-01T03:19:39.922Z,2.50
2023-02-01T03:22:06.811Z,3.00
2023-02-01T03:24:33.500Z,2.70
2023-02-01T03:27:00.395Z,2.20
2023-02-01T03:29:27.069Z,3.03
2023-02-01T03:31:53.983Z,2.70
2023-02-01T03:34:20.678Z,2.97
2023-02-01T03:36:47.353Z,2.20
2023-02-01T03:39:14.222Z,2.43
2023-02-01T03:41:40.910Z,2.78
2023-02-01T03:44:07.809Z,2.85
2023-02-01T03:46:34.507Z,2.60
2023-02-01T03:49:01.464Z,2.20
2023-02-01T03:51:28.159Z,2.73
2023-02-01T03:53:54.816Z,2.63
2023-02-01T03:56:21.462Z,2.67
2023-02-01T03:58:48.138Z,2.30
2023-02-01T04:01:14.807Z,2.40
2023-02-01T04:03:41.504Z,2.70
2023-02-01T04:06:08.183Z,2.80
2023-02-01T04:08:34.831Z,2.35
2023-02-01T04:11:01.541Z,2.75
2023-02-01T04:13:28.276Z,2.47
2023-02-01T04:15:54.926Z,2.83
2023-02-01T04:18:21.597Z,2.35
2023-02-01T04:20:48.485Z,2.20
2023-02-01T04:23:15.181Z,2.30
2023-02-01T04:25:42.072Z,2.47
2023-02-01T04:28:08.979Z,2.33
2023-02-01T04:30:35.758Z,2.22
2023-02-01T04:33:02.553Z,2.42
2023-02-01T04:35:29.211Z,2.70
2023-02-01T04:37:56.093Z,2.33
2023-02-01T04:40:22.998Z,3.17
2023-02-01T04:42:49.813Z,2.30
2023-02-01T04:45:16.505Z,2.47
2023-02-01T04:47:43.376Z,2.60
2023-02-01T04:50:10.023Z,2.47
2023-02-01T04:52:36.914Z,2.40
2023-02-01T04:55:03.603Z,2.40
2023-02-01T04:57:30.260Z,2.28
2023-02-01T04:59:56.917Z,1.92
2023-02-01T05:02:23.787Z,2.60
2023-02-01T05:04:50.708Z,2.57
2023-02-01T05:07:17.413Z,2.70
2023-02-01T05:09:44.301Z,2.20
2023-02-01T05:12:11.168Z,2.88
2023-02-01T05:14:37.825Z,2.33
2023-02-01T05:17:04.512Z,2.03
2023-02-01T05:19:31.232Z,2.33
2023-02-01T05:21:58.210Z,2.15
2023-02-01T05:24:24.916Z,2.72
2023-02-01T05:26:51.872Z,2.22
2023-02-01T05:29:18.625Z,2.40
2023-02-01T05:31:45.426Z,2.15
2023-02-01T05:34:12.165Z,2.20
2023-02-01T05:36:39.095Z,2.63
2023-02-01T05:39:05.757Z,2.22
2023-02-01T05:41:32.444Z,2.67
2023-02-01T05:43:59.108Z,2.08
2023-02-01T05:46:25.920Z,2.58
2023-02-01T05:48:52.721Z,1.77
2023-02-01T05:51:19.391Z,2.17
2023-02-01T05:53:46.276Z,2.00
2023-02-01T05:56:12.970Z,2.10
2023-02-01T05:58:39.621Z,2.15
2023-02-01T06:01:06.265Z,2.40
2023-02-01T06:03:32.974Z,2.40
2023-02-01T06:05:59.663Z,2.20
2023-02-01T06:08:26.335Z,2.53
2023-02-01T06:10:53.011Z,2.28
2023-02-01T06:13:19.903Z,2.28
2023-02-01T06:15:46.631Z,2.38
2023-02-01T06:18:13.334Z,2.87
2023-02-01T06:20:40.013Z,1.90
2023-02-01T06:23:06.738Z,2.25
2023-02-01T06:25:33.424Z,3.00
2023-02-01T06:28:00.132Z,2.10
2023-02-01T06:30:26.838Z,2.00
2023-02-01T06:32:53.598Z,2.28
2023-02-01T06:35:20.308Z,2.45
2023-02-01T06:37:46.983Z,2.20
2023-02-01T06:40:13.872Z,2.17
2023-02-01T06:42:40.559Z,2.30
2023-02-01T06:45:07.215Z,2.20
2023-02-01T06:47:33.876Z,2.83
2023-02-01T06:50:00.748Z,2.58
2023-02-01T06:52:27.399Z,2.10
2023-02-01T06:54:54.324Z,2.20
2023-02-01T06:57:20.999Z,1.90
2023-02-01T06:59:48.209Z,2.22
2023-02-01T07:02:14.895Z,1.92
2023-02-01T07:04:41.582Z,2.15
2023-02-01T07:07:08.248Z,2.43
2023-02-01T07:09:35.253Z,2.53
2023-02-01T07:12:01.926Z,2.00
2023-02-01T07:14:28.890Z,2.20
2023-02-01T07:16:55.559Z,1.98
2023-02-01T07:19:22.230Z,2.20
2023-02-01T07:21:48.904Z,1.80
2023-02-01T07:24:15.670Z,2.72
2023-02-01T07:26:42.584Z,2.03
2023-02-01T07:29:09.271Z,1.92
2023-02-01T07:31:35.926Z,2.23
2023-02-01T07:34:02.640Z,2.28
2023-02-01T07:36:29.373Z,2.58
2023-02-01T07:38:56.900Z,2.70
2023-02-01T07:41:23.895Z,2.40
2023-02-01T07:43:50.552Z,2.00
2023-02-01T07:46:17.464Z,2.58
2023-02-01T07:48:44.128Z,1.80
2023-02-01T07:51:10.775Z,2.00
2023-02-01T07:53:37.679Z,2.78
2023-02-01T07:56:04.828Z,2.73
2023-02-01T07:58:31.731Z,2.20
2023-02-01T08:00:58.479Z,2.40
2023-02-01T08:03:25.181Z,2.10
2023-02-01T08:05:51.858Z,1.98
2023-02-01T08:08:18.747Z,1.83
2023-02-01T08:10:45.408Z,1.85
2023-02-01T08:13:12.078Z,2.13
2023-02-01T08:15:38.779Z,2.20
2023-02-01T08:18:05.461Z,2.60
2023-02-01T08:20:32.129Z,2.03
2023-02-01T08:22:58.791Z,2.35
2023-02-01T08:25:25.471Z,1.88
2023-02-01T08:27:52.146Z,1.75
2023-02-01T08:30:18.808Z,2.10
2023-02-01T08:32:45.498Z,2.07
2023-02-01T08:35:12.187Z,2.58
2023-02-01T08:37:38.891Z,2.10
2023-02-01T08:42:53.167Z,2.33
2023-02-01T08:45:19.842Z,2.00
2023-02-01T08:47:46.525Z,2.30
2023-02-01T08:50:13.216Z,1.80
2023-02-01T08:52:39.998Z,2.13
2023-02-01T08:55:06.665Z,2.15
2023-02-01T08:57:33.354Z,2.87
2023-02-01T09:00:00.313Z,1.92
2023-02-01T09:02:26.964Z,2.55
2023-02-01T09:04:54.627Z,2.33
2023-02-01T09:07:21.485Z,2.97
2023-02-01T09:09:48.196Z,2.63
2023-02-01T09:12:15.110Z,2.58
2023-02-01T09:14:41.829Z,2.35
2023-02-01T09:17:08.556Z,2.78
2023-02-01T09:19:35.439Z,2.28
2023-02-01T09:22:02.110Z,2.20
2023-02-01T09:24:28.826Z,2.42
2023-02-01T09:26:55.571Z,1.88
2023-02-01T09:29:22.263Z,1.95
2023-02-01T09:31:57.755Z,2.67
2023-02-01T09:34:29.980Z,2.60
2023-02-01T09:36:56.647Z,2.58
2023-02-01T09:39:23.304Z,2.58
2023-02-01T09:41:49.988Z,2.42
2023-02-01T09:44:16.663Z,2.45
2023-02-01T09:46:43.326Z,2.67
2023-02-01T09:49:09.984Z,2.78
2023-02-01T09:51:36.654Z,2.90
2023-02-01T09:54:03.322Z,2.22
2023-02-01T09:56:29.986Z,2.20
2023-02-01T09:58:56.639Z,2.40
2023-02-01T10:01:23.376Z,2.00
2023-02-01T10:03:50.131Z,2.78
2023-02-01T10:06:16.800Z,2.92
2023-02-01T10:08:43.467Z,3.05
2023-02-01T10:11:10.114Z,2.00
2023-02-01T10:13:36.988Z,2.60
2023-02-01T10:16:03.700Z,2.80
2023-02-01T10:18:30.370Z,2.50
2023-02-01T10:20:57.028Z,2.65
2023-02-01T10:23:34.051Z,2.80
2023-02-01T10:26:01.395Z,2.35
2023-02-01T10:28:28.089Z,3.63
2023-02-01T10:30:54.827Z,2.90
2023-02-01T10:33:21.527Z,3.20
2023-02-01T10:35:48.217Z,2.50
2023-02-01T10:38:14.906Z,3.15
2023-02-01T10:40:41.611Z,2.47
2023-02-01T10:43:08.308Z,2.95
2023-02-01T10:45:35.177Z,4.15
2023-02-01T10:48:01.890Z,2.30
2023-02-01T10:50:28.617Z,2.20
2023-02-01T10:52:55.319Z,2.88
2023-02-01T10:55:21.992Z,2.53
2023-02-01T10:57:48.680Z,2.85
2023-02-01T11:00:15.396Z,2.67
2023-02-01T11:02:42.130Z,2.53
2023-02-01T11:05:08.826Z,2.80
2023-02-01T11:07:35.510Z,3.45
2023-02-01T11:10:02.191Z,2.90
2023-02-01T11:12:28.884Z,2.73
2023-02-01T11:14:55.550Z,2.60
2023-02-01T11:17:22.271Z,3.00
2023-02-01T11:19:48.951Z,2.88
2023-02-01T11:22:15.640Z,2.95
2023-02-01T11:24:42.307Z,3.10
2023-02-01T11:27:10.386Z,3.17
2023-02-01T11:29:38.517Z,2.90
2023-02-01T11:32:05.198Z,4.40
2023-02-01T11:34:31.858Z,2.80
2023-02-01T11:36:58.517Z,3.77
2023-02-01T11:39:25.186Z,3.55
2023-02-01T11:41:51.826Z,2.70
2023-02-01T11:44:18.479Z,2.40
2023-02-01T11:46:45.207Z,2.60
2023-02-01T11:49:11.922Z,3.00
2023-02-01T11:51:38.631Z,3.05
2023-02-01T11:54:05.311Z,3.10
2023-02-01T11:56:31.969Z,2.70
2023-02-01T11:58:58.648Z,3.35
2023-02-01T12:01:25.351Z,2.97
2023-02-01T12:03:52.013Z,3.58
2023-02-01T12:06:18.669Z,2.83
2023-02-01T12:08:46.067Z,2.55
2023-02-01T12:11:13.441Z,2.70
2023-02-01T12:13:40.123Z,2.50
2023-02-01T12:16:06.864Z,2.92
2023-02-01T12:18:33.812Z,2.70
2023-02-01T12:21:00.490Z,3.55
2023-02-01T12:23:27.159Z,4.07
2023-02-01T12:25:53.835Z,5.40
2023-02-01T12:28:20.516Z,3.17
2023-02-01T12:30:47.281Z,2.72
2023-02-01T12:33:14.003Z,3.72
2023-02-01T12:35:40.684Z,3.17
2023-02-01T12:38:07.404Z,2.43
2023-02-01T12:40:34.122Z,3.50
2023-02-01T12:43:00.823Z,3.35
2023-02-01T12:45:27.510Z,2.90
2023-02-01T12:47:54.173Z,3.50
2023-02-01T12:50:20.951Z,3.00
2023-02-01T12:52:47.911Z,2.85
2023-02-01T12:55:14.644Z,3.65
2023-02-01T12:57:41.332Z,4.18
2023-02-01T13:00:08.023Z,4.88
2023-02-01T13:02:34.774Z,2.97
2023-02-01T13:05:01.423Z,3.55
2023-02-01T13:07:28.109Z,3.50
2023-02-01T13:09:54.774Z,3.63
2023-02-01T13:12:21.429Z,3.33
2023-02-01T13:14:48.085Z,4.63
2023-02-01T13:17:14.766Z,3.22
2023-02-01T13:19:41.452Z,3.42
2023-02-01T13:22:08.113Z,3.88
2023-02-01T13:24:35.638Z,4.00
2023-02-01T13:27:02.320Z,3.30
2023-02-01T13:29:29.237Z,3.67
2023-02-01T13:31:55.941Z,3.08
2023-02-01T13:34:22.646Z,3.80
2023-02-01T13:36:49.382Z,3.70
2023-02-01T13:39:16.183Z,3.90
2023-02-01T13:41:42.920Z,3.95
2023-02-01T13:44:09.600Z,3.65
2023-02-01T13:46:36.267Z,3.53
2023-02-01T13:49:02.919Z,4.55
2023-02-01T13:51:29.597Z,3.00
2023-02-01T13:53:56.282Z,3.33
2023-02-01T13:56:22.958Z,3.38
2023-02-01T13:58:49.643Z,4.50
2023-02-01T14:01:16.379Z,4.72
2023-02-01T14:03:43.089Z,2.90
2023-02-01T14:06:09.818Z,4.28
2023-02-01T14:08:36.575Z,3.17
2023-02-01T14:11:03.552Z,4.60
2023-02-01T14:13:30.286Z,2.83
2023-02-01T14:15:57.278Z,4.40
2023-02-01T14:18:23.991Z,6.40
2023-02-01T14:20:50.679Z,3.97
2023-02-01T14:23:17.338Z,3.95
2023-02-01T14:25:44.258Z,3.95
2023-02-01T14:28:10.943Z,4.57
2023-02-01T14:30:37.643Z,3.67
2023-02-01T14:33:04.637Z,4.20
2023-02-01T14:35:31.340Z,4.45
2023-02-01T14:37:58.024Z,3.22
2023-02-01T14:40:24.675Z,4.63
2023-02-01T14:42:51.553Z,4.07
2023-02-01T14:45:18.248Z,2.45
2023-02-01T14:47:44.923Z,3.50
2023-02-01T14:50:14.081Z,5.93
2023-02-01T14:52:40.969Z,4.00
2023-02-01T14:55:07.661Z,4.43
2023-02-01T14:57:34.343Z,5.93
2023-02-01T15:00:01.238Z,3.63
2023-02-01T15:02:27.966Z,3.03
2023-02-01T15:04:54.654Z,4.70
2023-02-01T15:07:21.312Z,3.63
2023-02-01T15:09:47.974Z,3.40
2023-02-01T15:12:14.655Z,4.65
2023-02-01T15:14:41.346Z,4.18
2023-02-01T15:17:08.030Z,2.93
2023-02-01T15:19:34.713Z,3.92
2023-02-01T15:22:01.822Z,3.33
2023-02-01T15:24:28.473Z,4.45
2023-02-01T15:26:55.194Z,4.57
2023-02-01T15:29:21.909Z,2.90
2023-02-01T15:31:48.667Z,3.88
2023-02-01T15:34:15.654Z,3.72
2023-02-01T15:36:47.933Z,5.60
2023-02-01T15:39:17.349Z,3.95
2023-02-01T15:41:44.124Z,3.57
2023-02-01T15:44:10.790Z,3.28
2023-02-01T15:46:37.469Z,4.90
2023-02-01T15:49:04.150Z,3.42
2023-02-01T15:51:30.803Z,3.45
2023-02-01T15:53:57.499Z,4.73
2023-02-01T15:56:24.183Z,4.43
2023-02-01T15:58:51.193Z,4.68
2023-02-01T16:01:17.865Z,3.13
2023-02-01T16:03:44.572Z,4.97
2023-02-01T16:06:11.284Z,5.50
2023-02-01T16:08:37.976Z,3.50
2023-02-01T16:11:04.671Z,3.42
2023-02-01T16:13:31.567Z,3.45
2023-02-01T16:16:00.523Z,3.72
2023-02-01T16:18:27.230Z,6.90
2023-02-01T16:20:54.086Z,4.78
2023-02-01T16:23:20.769Z,3.85
2023-02-01T16:25:47.446Z,3.55
2023-02-01T16:28:14.144Z,3.25
2023-02-01T16:30:40.855Z,4.63
2023-02-01T16:33:07.767Z,4.03
2023-02-01T16:35:34.493Z,3.50
2023-02-01T16:38:01.171Z,4.22
2023-02-01T16:40:27.842Z,3.40
2023-02-01T16:42:54.521Z,4.23
2023-02-01T16:45:21.701Z,5.88
2023-02-01T16:47:48.662Z,4.63
2023-02-01T16:50:22.703Z,3.17
2023-02-01T16:52:50.168Z,3.65
2023-02-01T16:55:17.084Z,3.40
2023-02-01T16:57:43.771Z,3.22
2023-02-01T17:00:23.529Z,5.93
2023-02-01T17:02:51.443Z,4.50
2023-02-01T17:05:18.365Z,3.42
2023-02-01T17:07:45.053Z,4.30
2023-02-01T17:10:13.501Z,3.92
2023-02-01T17:12:41.792Z,4.07
2023-02-01T17:15:08.460Z,4.15
2023-02-01T17:17:38.886Z,4.47
2023-02-01T17:20:06.335Z,3.33
2023-02-01T17:22:32.995Z,4.38
2023-02-01T17:24:59.649Z,4.93
2023-02-01T17:27:27.324Z,4.72
2023-02-01T17:29:54.021Z,3.60
2023-02-01T17:32:20.799Z,3.33
2023-02-01T17:34:48.183Z,4.13
2023-02-01T17:37:14.838Z,2.83
2023-02-01T17:39:41.507Z,5.65
2023-02-01T17:42:08.363Z,4.70
2023-02-01T17:44:35.030Z,5.07
2023-02-01T17:47:01.907Z,4.13
2023-02-01T17:49:28.591Z,4.45
2023-02-01T17:51:55.276Z,4.22
2023-02-01T17:54:21.956Z,4.28
2023-02-01T17:56:48.611Z,5.20
2023-02-01T17:59:15.575Z,4.35
2023-02-01T18:01:42.245Z,3.85
2023-02-01T18:04:08.937Z,4.05
2023-02-01T18:06:37.628Z,3.80
2023-02-01T18:09:05.429Z,4.90
2023-02-01T18:11:32.540Z,3.40
2023-02-01T18:13:59.201Z,4.18
2023-02-01T18:16:25.914Z,4.05
2023-02-01T18:18:52.597Z,3.55
2023-02-01T18:21:19.238Z,4.07
2023-02-01T18:23:46.220Z,3.83
2023-02-01T18:26:12.935Z,4.18
2023-02-01T18:28:40.492Z,3.47
2023-02-01T18:31:07.232Z,3.50
2023-02-01T18:33:33.978Z,3.87
2023-02-01T18:36:00.685Z,3.25
2023-02-01T18:38:27.397Z,4.03
2023-02-01T18:40:54.546Z,4.75
2023-02-01T18:43:21.213Z,4.28
2023-02-01T18:45:47.956Z,4.33
2023-02-01T18:48:14.660Z,3.55
2023-02-01T18:50:41.322Z,4.18
2023-02-01T18:53:07.993Z,5.75
2023-02-01T18:55:34.884Z,3.95
2023-02-01T18:58:01.539Z,3.67
2023-02-01T19:00:28.425Z,4.70
2023-02-01T19:02:55.221Z,3.75
2023-02-01T19:05:22.150Z,3.10
2023-02-01T19:07:48.915Z,3.15
2023-02-01T19:10:15.588Z,3.63
2023-02-01T19:12:42.273Z,3.53
2023-02-01T19:15:08.964Z,4.65
2023-02-01T19:17:35.616Z,3.40
2023-02-01T19:20:02.285Z,3.28
2023-02-01T19:22:28.935Z,5.07
2023-02-01T19:24:55.631Z,3.78
2023-02-01T19:27:22.292Z,3.80
2023-02-01T19:29:48.950Z,3.83
2023-02-01T19:32:15.613Z,4.28
2023-02-01T19:34:42.283Z,3.27
2023-02-01T19:37:08.958Z,3.30
2023-02-01T19:39:35.609Z,4.43
2023-02-01T19:42:04.083Z,3.92
2023-02-01T19:44:30.973Z,5.07
2023-02-01T19:46:57.657Z,3.90
2023-02-01T19:49:24.325Z,4.32
2023-02-01T19:51:50.986Z,3.97
2023-02-01T19:54:17.694Z,4.03
2023-02-01T19:56:44.365Z,3.22
2023-02-01T19:59:11.249Z,4.30
2023-02-01T20:01:37.138Z,3.30
2023-02-01T20:04:03.837Z,3.35
2023-02-01T20:06:30.714Z,4.35
2023-02-01T20:08:57.404Z,3.53
2023-02-01T20:11:24.423Z,3.90
2023-02-01T20:13:52.523Z,4.60
2023-02-01T20:16:19.238Z,4.65
2023-02-01T20:18:46.165Z,4.10
2023-02-01T20:21:12.862Z,4.25
2023-02-01T20:23:39.746Z,4.83
2023-02-01T20:26:07.295Z,3.65
2023-02-01T20:28:34.165Z,3.60
2023-02-01T20:31:00.943Z,3.70
2023-02-01T20:33:27.692Z,4.95
2023-02-01T20:35:54.360Z,4.13
2023-02-01T20:38:21.013Z,4.03
2023-02-01T20:40:47.667Z,3.50
2023-02-01T20:43:14.320Z,3.47
2023-02-01T20:45:41.220Z,3.85
2023-02-01T20:48:07.897Z,4.60
2023-02-01T20:50:34.568Z,3.67
2023-02-01T20:53:01.236Z,3.05
2023-02-01T20:55:28.122Z,3.20
2023-02-01T20:57:54.794Z,4.45
2023-02-01T21:00:21.655Z,3.97
2023-02-01T21:02:48.321Z,3.45
2023-02-01T21:05:15.193Z,3.45
2023-02-01T21:07:42.081Z,3.63
2023-02-01T21:10:08.934Z,3.67
2023-02-01T21:12:35.591Z,2.90
2023-02-01T21:15:02.474Z,3.40
2023-02-01T21:17:29.148Z,4.72
2023-02-01T21:19:55.806Z,4.03
2023-02-01T21:22:22.457Z,3.85
2023-02-01T21:24:49.119Z,3.97
2023-02-01T21:27:15.769Z,4.65
2023-02-01T21:29:42.426Z,4.57
2023-02-01T21:32:09.111Z,3.55
2023-02-01T21:34:35.784Z,3.85
2023-02-01T21:37:02.694Z,3.93
2023-02-01T21:39:29.376Z,4.25
2023-02-01T21:41:56.072Z,4.18
2023-02-01T21:44:22.931Z,4.03
2023-02-01T21:46:49.603Z,3.30
2023-02-01T21:49:16.297Z,3.77
2023-02-01T21:51:43.183Z,4.03
2023-02-01T21:54:09.836Z,3.67
2023-02-01T21:56:36.505Z,3.03
2023-02-01T21:59:03.389Z,3.78
2023-02-01T22:01:30.095Z,4.87
2023-02-01T22:03:56.772Z,4.63
2023-02-01T22:06:23.429Z,3.40
2023-02-01T22:08:52.635Z,4.40
2023-02-01T22:11:19.296Z,3.53
2023-02-01T22:13:46.219Z,3.40
2023-02-01T22:16:12.919Z,3.50
2023-02-01T22:18:39.611Z,4.07
2023-02-01T22:21:06.274Z,3.58
2023-02-01T22:23:32.932Z,4.22
2023-02-01T22:25:59.597Z,3.77
2023-02-01T22:28:33.161Z,3.05
2023-02-01T22:31:00.373Z,4.43
2023-02-01T22:33:27.315Z,4.05
2023-02-01T22:35:53.979Z,3.78
2023-02-01T22:38:20.639Z,4.37
2023-02-01T22:40:47.527Z,4.82
2023-02-01T22:43:14.179Z,2.70
2023-02-01T22:45:41.052Z,3.55
2023-02-01T22:48:07.727Z,3.42
2023-02-01T22:50:34.618Z,3.60
2023-02-01T22:53:01.290Z,5.50
2023-02-01T22:55:27.937Z,3.65
2023-02-01T22:57:54.613Z,4.55
2023-02-01T23:00:21.483Z,3.15
2023-02-01T23:02:48.161Z,4.40
2023-02-01T23:05:14.846Z,4.60
2023-02-01T23:07:41.588Z,3.30
2023-02-01T23:10:08.296Z,3.58
2023-02-01T23:12:35.158Z,4.00
2023-02-01T23:15:01.815Z,4.87
2023-02-01T23:17:28.482Z,3.42
2023-02-01T23:19:55.164Z,4.78
2023-02-01T23:22:21.841Z,3.42
2023-02-01T23:24:48.498Z,3.17
2023-02-01T23:27:15.161Z,3.13
2023-02-01T23:29:41.807Z,4.35
2023-02-01T23:32:08.486Z,3.75
2023-02-01T23:34:35.157Z,4.40
2023-02-01T23:37:01.811Z,4.10
2023-02-01T23:39:28.474Z,5.07
2023-02-01T23:41:55.152Z,4.07
2023-02-01T23:44:21.824Z,3.53
2023-02-01T23:46:48.487Z,3.45
2023-02-01T23:49:15.147Z,3.85
2023-02-01T23:51:42.012Z,4.30
2023-02-01T23:54:08.663Z,4.22
2023-02-01T23:56:35.647Z,3.35
2023-02-01T23:59:02.364Z,4.82
